createdAt,value
2019-01-12T00:03:06.575Z,100.00
2019-01-12T00:05:33.837Z,100.00
2019-01-12T00:08:20.262Z,99.05
2019-01-12T00:10:47.010Z,98.68
2019-01-12T00:13:14.083Z,99.31
2019-01-12T00:15:41.275Z,99.81
2019-01-12T00:18:08.593Z,100.00
2019-01-12T00:20:35.509Z,100.00
2019-01-12T00:23:02.746Z,100.00
2019-01-12T00:25:29.488Z,100.00
2019-01-12T00:27:56.332Z,100.00
2019-01-12T00:30:23.245Z,100.00
2019-01-12T00:32:50.352Z,100.00
2019-01-12T00:35:17.088Z,100.00
2019-01-12T00:37:43.988Z,100.00
2019-01-12T00:40:51.765Z,100.00
2019-01-12T00:43:18.872Z,100.00
2019-01-12T00:45:45.603Z,100.00
2019-01-12T00:48:12.526Z,99.38
2019-01-12T00:50:39.467Z,98.54
2019-01-12T00:53:06.627Z,99.14
2019-01-12T00:55:33.378Z,99.46
2019-01-12T00:58:00.533Z,97.69
2019-01-12T01:00:27.279Z,98.11
2019-01-12T01:02:54.121Z,97.85
2019-01-12T01:05:20.912Z,98.16
2019-01-12T01:07:47.972Z,98.49
2019-01-12T01:10:17.097Z,99.02
2019-01-12T01:12:43.918Z,100.00
2019-01-12T01:15:10.803Z,100.00
2019-01-12T01:17:37.920Z,99.23
2019-01-12T01:20:05.052Z,98.19
2019-01-12T01:22:31.919Z,96.71
2019-01-12T01:24:58.651Z,96.88
2019-01-12T01:27:25.745Z,96.79
2019-01-12T01:29:52.832Z,97.04
2019-01-12T01:32:20.030Z,96.20
2019-01-12T01:34:46.989Z,96.08
2019-01-12T01:37:13.830Z,96.03
2019-01-12T01:39:40.688Z,95.26
2019-01-12T01:42:07.692Z,95.35
2019-01-12T01:44:34.500Z,95.09
2019-01-12T01:47:01.218Z,94.35
2019-01-12T01:49:28.186Z,95.45
2019-01-12T01:51:54.922Z,95.27
2019-01-12T01:54:21.763Z,95.79
2019-01-12T01:56:49.120Z,95.09
2019-01-12T01:59:16.132Z,95.83
2019-01-12T02:01:43.252Z,95.78
2019-01-12T02:04:10.105Z,95.13
2019-01-12T02:06:36.843Z,96.08
2019-01-12T02:09:06.263Z,95.03
2019-01-12T02:11:52.851Z,95.50
2019-01-12T02:14:19.589Z,94.50
2019-01-12T02:16:46.324Z,94.36
2019-01-12T02:19:13.257Z,94.72
2019-01-12T02:21:40.542Z,95.17
2019-01-12T02:24:07.361Z,95.19
2019-01-12T02:26:34.224Z,95.12
2019-01-12T02:29:00.960Z,95.59
2019-01-12T02:31:27.696Z,95.04
2019-01-12T02:33:54.672Z,95.78
2019-01-12T02:36:21.405Z,95.80
2019-01-12T02:38:48.290Z,96.39
2019-01-12T02:41:15.188Z,96.84
2019-01-12T02:43:42.150Z,96.74
2019-01-12T02:46:08.981Z,97.12
2019-01-12T02:48:55.464Z,98.01
2019-01-12T02:51:22.569Z,97.40
2019-01-12T02:53:49.301Z,97.50
2019-01-12T02:56:16.156Z,97.19
2019-01-12T02:58:42.880Z,97.71
2019-01-12T03:01:09.741Z,96.39
2019-01-12T03:03:36.743Z,96.30
2019-01-12T03:06:03.644Z,96.37
2019-01-12T03:08:30.765Z,96.30
2019-01-12T03:10:57.641Z,96.45
2019-01-12T03:13:24.315Z,96.27
2019-01-12T03:15:51.035Z,97.41
2019-01-12T03:18:17.853Z,98.24
2019-01-12T03:20:44.708Z,97.14
2019-01-12T03:23:11.530Z,97.85
2019-01-12T03:25:38.398Z,98.21
2019-01-12T03:28:05.221Z,98.47
2019-01-12T03:30:31.969Z,98.60
2019-01-12T03:32:58.847Z,98.99
2019-01-12T03:35:25.676Z,99.96
2019-01-12T03:37:52.522Z,98.61
2019-01-12T03:40:20.420Z,99.12
2019-01-12T03:42:47.279Z,99.19
2019-01-12T03:45:15.099Z,100.00
2019-01-12T03:47:42.395Z,99.24
2019-01-12T03:50:09.911Z,100.00
2019-01-12T03:52:36.743Z,99.93
2019-01-12T03:55:45.028Z,100.00
2019-01-12T03:58:11.913Z,100.00
2019-01-12T04:00:38.674Z,100.00
2019-01-12T04:03:05.568Z,99.63
2019-01-12T04:05:32.365Z,99.86
2019-01-12T04:07:59.118Z,100.00
2019-01-12T04:10:26.008Z,100.00
2019-01-12T04:12:52.920Z,99.36
2019-01-12T04:15:19.776Z,100.00
2019-01-12T04:17:46.681Z,99.93
2019-01-12T04:20:14.818Z,98.61
2019-01-12T04:22:41.692Z,98.52
2019-01-12T04:25:09.181Z,98.79
2019-01-12T04:27:36.209Z,98.94
2019-01-12T04:30:05.231Z,99.35
2019-01-12T04:32:32.400Z,98.38
2019-01-12T04:34:59.739Z,97.86
2019-01-12T04:37:26.589Z,98.73
2019-01-12T04:39:53.593Z,97.71
2019-01-12T04:42:20.760Z,97.48
2019-01-12T04:44:47.515Z,97.27
2019-01-12T04:47:14.484Z,96.56
2019-01-12T04:49:41.349Z,95.90
2019-01-12T04:52:08.349Z,95.71
2019-01-12T04:54:35.170Z,94.91
2019-01-12T04:57:02.092Z,95.63
2019-01-12T04:59:28.845Z,95.34
2019-01-12T05:01:55.837Z,95.00
2019-01-12T05:07:32.842Z,95.08
2019-01-12T05:09:59.608Z,94.46
2019-01-12T05:12:27.099Z,94.50
2019-01-12T05:14:54.115Z,94.19
2019-01-12T05:17:20.854Z,93.90
2019-01-12T05:19:47.601Z,94.15
2019-01-12T05:22:14.541Z,94.20
2019-01-12T05:24:41.403Z,94.97
2019-01-12T05:27:08.510Z,94.08
2019-01-12T05:29:35.561Z,94.27
2019-01-12T05:32:02.502Z,93.48
2019-01-12T05:34:29.259Z,94.44
2019-01-12T05:36:56.179Z,93.84
2019-01-12T05:39:23.036Z,93.73
2019-01-12T05:41:50.334Z,93.61
2019-01-12T05:44:17.205Z,93.57
2019-01-12T05:46:44.066Z,93.34
2019-01-12T05:49:10.819Z,92.49
2019-01-12T05:51:38.054Z,93.65
2019-01-12T05:54:04.940Z,93.57
2019-01-12T05:56:31.924Z,92.69
2019-01-12T05:58:59.108Z,92.89
2019-01-12T06:01:25.967Z,91.60
2019-01-12T06:03:52.980Z,92.81
2019-01-12T06:06:20.235Z,91.52
2019-01-12T06:08:47.096Z,91.54
2019-01-12T06:11:14.357Z,91.33
2019-01-12T06:13:41.586Z,92.07
2019-01-12T06:16:08.446Z,91.92
2019-01-12T06:18:35.214Z,93.03
2019-01-12T06:21:02.334Z,92.25
2019-01-12T06:23:29.087Z,91.61
2019-01-12T06:25:55.964Z,92.38
2019-01-12T06:28:22.951Z,92.50
2019-01-12T06:30:50.007Z,91.59
2019-01-12T06:33:16.923Z,91.97
2019-01-12T06:35:43.750Z,93.44
2019-01-12T06:38:10.921Z,91.64
2019-01-12T06:40:38.461Z,90.23
2019-01-12T06:43:05.380Z,90.38
2019-01-12T06:45:32.541Z,89.61
2019-01-12T06:47:59.923Z,89.12
2019-01-12T06:50:26.814Z,90.17
2019-01-12T06:52:54.186Z,89.93
2019-01-12T06:55:21.046Z,89.76
2019-01-12T06:57:48.320Z,90.06
2019-01-12T07:00:16.851Z,91.37
2019-01-12T07:02:43.811Z,90.63
2019-01-12T07:05:10.907Z,90.37
2019-01-12T07:07:38.028Z,90.32
2019-01-12T07:10:05.925Z,90.00
2019-01-12T07:12:32.842Z,89.96
2019-01-12T07:14:59.882Z,90.00
2019-01-12T07:17:27.209Z,90.70
2019-01-12T07:22:27.368Z,90.43
2019-01-12T07:24:54.119Z,90.85
2019-01-12T07:27:21.403Z,91.85
2019-01-12T07:29:48.610Z,92.56
2019-01-12T07:32:15.754Z,92.37
2019-01-12T07:34:42.946Z,91.97
2019-01-12T07:37:10.141Z,92.38
2019-01-12T07:39:36.999Z,92.81
2019-01-12T07:42:03.916Z,93.62
2019-01-12T07:44:31.701Z,93.14
2019-01-12T07:46:58.672Z,94.07
2019-01-12T07:49:27.039Z,94.08
2019-01-12T07:51:54.452Z,94.88
2019-01-12T07:54:21.637Z,96.50
2019-01-12T07:56:48.524Z,98.77
2019-01-12T07:59:15.738Z,100.00
2019-01-12T08:01:43.093Z,100.00
2019-01-12T08:04:10.458Z,100.00
2019-01-12T08:06:37.361Z,100.00
2019-01-12T08:09:07.771Z,100.00
2019-01-12T08:11:34.756Z,100.00
2019-01-12T08:14:01.612Z,100.00
2019-01-12T08:16:28.473Z,100.00
2019-01-12T08:18:55.950Z,100.00
2019-01-12T08:21:24.122Z,100.00
2019-01-12T08:24:33.204Z,100.00
2019-01-12T08:27:00.239Z,100.00
2019-01-12T08:29:27.391Z,100.00
2019-01-12T08:31:54.669Z,100.00
2019-01-12T08:34:21.642Z,100.00
2019-01-12T08:36:48.501Z,100.00
2019-01-12T08:39:15.758Z,100.00
2019-01-12T08:41:42.601Z,100.00
2019-01-12T08:44:09.796Z,100.00
2019-01-12T08:46:37.896Z,100.00
2019-01-12T08:49:05.693Z,100.00
2019-01-12T08:51:33.269Z,100.00
2019-01-12T08:54:21.644Z,100.00
2019-01-12T08:57:08.001Z,100.00
2019-01-12T08:59:35.608Z,100.00
2019-01-12T09:02:03.223Z,100.00
2019-01-12T09:04:30.071Z,100.00
2019-01-12T09:06:57.083Z,100.00
2019-01-12T09:09:24.520Z,100.00
2019-01-12T09:11:51.241Z,100.00
2019-01-12T09:14:18.276Z,100.00
2019-01-12T09:16:45.011Z,100.00
2019-01-12T09:19:11.762Z,100.00
2019-01-12T09:21:38.603Z,100.00
2019-01-12T09:24:05.337Z,100.00
2019-01-12T09:26:32.122Z,100.00
2019-01-12T09:28:59.017Z,100.00
2019-01-12T09:31:25.758Z,100.00
2019-01-12T09:34:12.508Z,100.00
2019-01-12T09:36:39.583Z,100.00
2019-01-12T09:39:07.883Z,100.00
2019-01-12T09:41:34.782Z,100.00
2019-01-12T09:44:01.643Z,100.00
2019-01-12T09:46:29.332Z,100.00
2019-01-12T09:48:59.224Z,100.00
2019-01-12T09:51:26.596Z,100.00
2019-01-12T09:53:54.092Z,100.00
2019-01-12T09:56:22.616Z,100.00
2019-01-12T09:58:51.884Z,100.00
2019-01-12T10:01:26.253Z,100.00
2019-01-12T10:03:56.066Z,100.00
2019-01-12T10:06:28.291Z,100.00
2019-01-12T10:08:58.104Z,100.00
2019-01-12T10:11:25.750Z,100.00
2019-01-12T10:13:53.083Z,100.00
2019-01-12T10:16:20.702Z,100.00
2019-01-12T10:18:48.718Z,100.00
2019-01-12T10:21:15.896Z,100.00
2019-01-12T10:23:43.179Z,100.00
2019-01-12T10:26:10.178Z,100.00
2019-01-12T10:28:37.169Z,100.00
2019-01-12T10:31:04.412Z,100.00
2019-01-12T10:33:31.178Z,100.00
2019-01-12T10:35:57.948Z,100.00
2019-01-12T10:38:37.967Z,100.00
2019-01-12T10:41:04.821Z,100.00
2019-01-12T10:43:32.400Z,100.00
2019-01-12T10:45:59.295Z,100.00
2019-01-12T10:48:26.485Z,100.00
2019-01-12T10:50:53.225Z,100.00
2019-01-12T10:53:20.198Z,100.00
2019-01-12T10:55:47.031Z,100.00
2019-01-12T10:58:13.871Z,100.00
2019-01-12T11:00:40.787Z,100.00
2019-01-12T11:03:07.888Z,100.00
2019-01-12T11:05:34.766Z,100.00
2019-01-12T11:08:01.778Z,100.00
2019-01-12T11:10:28.701Z,100.00
2019-01-12T11:13:17.953Z,100.00
2019-01-12T11:15:45.134Z,100.00
2019-01-12T11:18:12.003Z,100.00
2019-01-12T11:20:38.961Z,100.00
2019-01-12T11:23:05.909Z,100.00
2019-01-12T11:25:33.115Z,100.00
2019-01-12T11:28:00.165Z,100.00
2019-01-12T11:30:27.218Z,100.00
2019-01-12T11:32:54.100Z,100.00
2019-01-12T11:35:21.067Z,100.00
2019-01-12T11:37:48.346Z,100.00
2019-01-12T11:40:17.216Z,100.00
2019-01-12T11:42:44.297Z,100.00
2019-01-12T11:45:11.632Z,100.00
2019-01-12T11:47:38.488Z,100.00
2019-01-12T11:50:07.690Z,100.00
2019-01-12T11:52:34.848Z,100.00
2019-01-12T11:55:01.879Z,100.00
2019-01-12T11:57:35.941Z,100.00
2019-01-12T12:00:44.710Z,100.00
2019-01-12T12:03:11.750Z,100.00
2019-01-12T12:05:38.598Z,100.00
2019-01-12T12:08:05.540Z,100.00
2019-01-12T12:10:32.524Z,100.00
2019-01-12T12:12:59.641Z,100.00
2019-01-12T12:15:26.694Z,100.00
2019-01-12T12:17:53.890Z,100.00
2019-01-12T12:20:40.272Z,100.00
2019-01-12T12:23:07.219Z,100.00
2019-01-12T12:25:33.976Z,100.00
2019-01-12T12:28:00.841Z,100.00
2019-01-12T12:30:31.042Z,100.00
2019-01-12T12:32:58.094Z,100.00
2019-01-12T12:35:25.403Z,100.00
2019-01-12T12:37:52.794Z,100.00
2019-01-12T12:40:21.424Z,100.00
2019-01-12T12:42:48.616Z,100.00
2019-01-12T12:45:18.165Z,100.00
2019-01-12T12:47:45.023Z,100.00
2019-01-12T12:50:12.218Z,100.00
2019-01-12T12:52:39.131Z,100.00
2019-01-12T12:55:06.579Z,99.09
2019-01-12T12:57:33.332Z,98.36
2019-01-12T13:00:00.234Z,97.51
2019-01-12T13:02:27.100Z,96.53
2019-01-12T13:04:53.994Z,97.11
2019-01-12T13:07:20.940Z,96.06
2019-01-12T13:09:47.808Z,96.25
2019-01-12T13:12:14.587Z,95.45
2019-01-12T13:14:41.566Z,96.54
2019-01-12T13:17:08.459Z,96.40
2019-01-12T13:19:35.338Z,96.01
2019-01-12T13:22:02.332Z,95.22
2019-01-12T13:24:29.341Z,94.47
2019-01-12T13:26:56.197Z,91.12
2019-01-12T13:29:23.398Z,92.31
2019-01-12T13:31:50.164Z,91.21
2019-01-12T13:34:17.021Z,92.23
2019-01-12T13:36:44.341Z,93.12
2019-01-12T13:39:11.480Z,93.05
2019-01-12T13:41:38.234Z,93.53
2019-01-12T13:44:05.235Z,93.39
2019-01-12T13:46:32.001Z,92.54
2019-01-12T13:48:58.844Z,93.68
2019-01-12T13:51:25.740Z,95.96
2019-01-12T13:53:52.885Z,96.06
2019-01-12T13:56:19.727Z,96.74
2019-01-12T13:58:46.931Z,97.12
2019-01-12T14:01:14.067Z,97.69
2019-01-12T14:03:40.917Z,98.43
2019-01-12T14:06:07.928Z,100.00
2019-01-12T14:08:34.823Z,100.00
2019-01-12T14:11:01.815Z,100.00
2019-01-12T14:13:28.727Z,100.00
2019-01-12T14:15:55.797Z,100.00
2019-01-12T14:18:22.872Z,100.00
2019-01-12T14:20:49.843Z,100.00
2019-01-12T14:23:17.011Z,100.00
2019-01-12T14:25:43.775Z,100.00
2019-01-12T14:28:10.595Z,100.00
2019-01-12T14:30:37.447Z,100.00
2019-01-12T14:33:04.615Z,100.00
2019-01-12T14:35:31.832Z,100.00
2019-01-12T14:37:58.679Z,100.00
2019-01-12T14:40:25.529Z,100.00
2019-01-12T14:42:52.429Z,100.00
2019-01-12T14:45:32.082Z,100.00
2019-01-12T14:47:58.987Z,100.00
2019-01-12T14:50:25.746Z,100.00
2019-01-12T14:52:52.486Z,100.00
2019-01-12T14:55:40.787Z,100.00
2019-01-12T14:58:07.612Z,100.00
2019-01-12T15:00:34.368Z,100.00
2019-01-12T15:03:01.228Z,100.00
2019-01-12T15:05:30.089Z,100.00
2019-01-12T15:07:57.225Z,100.00
2019-01-12T15:10:24.005Z,100.00
2019-01-12T15:12:50.928Z,100.00
2019-01-12T15:15:18.111Z,100.00
2019-01-12T15:17:44.934Z,100.00
2019-01-12T15:20:14.545Z,100.00
2019-01-12T15:22:41.288Z,100.00
2019-01-12T15:25:08.595Z,100.00
2019-01-12T15:27:35.622Z,100.00
2019-01-12T15:30:02.592Z,100.00
2019-01-12T15:32:29.890Z,100.00
2019-01-12T15:34:56.630Z,100.00
2019-01-12T15:37:23.675Z,100.00
2019-01-12T15:39:50.574Z,100.00
2019-01-12T15:42:17.321Z,100.00
2019-01-12T15:44:44.184Z,100.00
2019-01-12T15:47:11.055Z,100.00
2019-01-12T15:49:37.810Z,100.00
2019-01-12T15:52:04.596Z,100.00
2019-01-12T15:54:31.435Z,100.00
2019-01-12T15:56:58.545Z,100.00
2019-01-12T15:59:25.395Z,100.00
2019-01-12T16:01:52.807Z,100.00
2019-01-12T16:04:20.037Z,100.00
2019-01-12T16:06:59.506Z,100.00
2019-01-12T16:09:16.544Z,100.00
2019-01-12T16:11:43.381Z,100.00
2019-01-12T16:14:10.236Z,100.00
2019-01-12T16:16:37.203Z,100.00
2019-01-12T16:19:04.059Z,100.00
2019-01-12T16:21:31.222Z,100.00
2019-01-12T16:23:58.196Z,100.00
2019-01-12T16:26:25.553Z,100.00
2019-01-12T16:28:52.390Z,100.00
2019-01-12T16:31:19.511Z,100.00
2019-01-12T16:33:46.266Z,100.00
2019-01-12T16:36:13.183Z,100.00
2019-01-12T16:38:40.073Z,100.00
2019-01-12T16:41:07.293Z,100.00
2019-01-12T16:43:34.145Z,100.00
2019-01-12T16:46:01.143Z,100.00
2019-01-12T16:48:28.227Z,100.00
2019-01-12T16:51:36.937Z,100.00
2019-01-12T16:54:03.824Z,100.00
2019-01-12T16:56:30.560Z,100.00
2019-01-12T16:58:57.868Z,100.00
2019-01-12T17:01:25.056Z,100.00
2019-01-12T17:03:51.791Z,100.00
2019-01-12T17:06:18.661Z,100.00
2019-01-12T17:08:45.532Z,100.00
2019-01-12T17:11:12.643Z,100.00
2019-01-12T17:13:40.150Z,100.00
2019-01-12T17:16:08.790Z,100.00
2019-01-12T17:18:35.639Z,100.00
2019-01-12T17:21:02.841Z,100.00
2019-01-12T17:23:30.064Z,100.00
2019-01-12T17:25:57.465Z,100.00
2019-01-12T17:28:24.258Z,100.00
2019-01-12T17:30:51.213Z,100.00
2019-01-12T17:33:17.999Z,100.00
2019-01-12T17:35:44.892Z,100.00
2019-01-12T17:38:11.801Z,100.00
2019-01-12T17:40:38.824Z,100.00
2019-01-12T17:43:06.326Z,100.00
2019-01-12T17:45:33.723Z,100.00
2019-01-12T17:48:20.632Z,100.00
2019-01-12T17:51:00.472Z,100.00
2019-01-12T17:53:27.280Z,100.00
2019-01-12T17:55:54.628Z,100.00
2019-01-12T17:58:21.485Z,100.00
2019-01-12T18:00:50.097Z,100.00
2019-01-12T18:03:36.440Z,100.00
2019-01-12T18:06:03.348Z,100.00
2019-01-12T18:08:30.074Z,100.00
2019-01-12T18:10:56.823Z,100.00
2019-01-12T18:13:23.605Z,100.00
2019-01-12T18:15:50.679Z,100.00
2019-01-12T18:18:17.513Z,100.00
2019-01-12T18:20:44.681Z,100.00
2019-01-12T18:23:11.609Z,100.00
2019-01-12T18:25:38.434Z,100.00
2019-01-12T18:28:05.609Z,100.00
2019-01-12T18:30:32.648Z,100.00
2019-01-12T18:32:59.478Z,100.00
2019-01-12T18:35:26.381Z,100.00
2019-01-12T18:37:53.114Z,100.00
2019-01-12T18:40:19.959Z,100.00
2019-01-12T18:42:47.028Z,100.00
2019-01-12T18:45:15.568Z,100.00
2019-01-12T18:47:42.417Z,100.00
2019-01-12T18:50:12.616Z,100.00
2019-01-12T18:52:39.646Z,100.00
2019-01-12T18:55:07.561Z,100.00
2019-01-12T18:57:34.814Z,100.00
2019-01-12T19:00:01.683Z,100.00
2019-01-12T19:02:28.420Z,100.00
2019-01-12T19:04:55.830Z,100.00
2019-01-12T19:07:23.405Z,100.00
2019-01-12T19:09:50.134Z,100.00
2019-01-12T19:12:17.034Z,100.00
2019-01-12T19:14:43.907Z,100.00
2019-01-12T19:17:10.747Z,100.00
2019-01-12T19:19:38.211Z,100.00
2019-01-12T19:22:05.053Z,100.00
2019-01-12T19:24:32.190Z,100.00
2019-01-12T19:26:59.155Z,100.00
2019-01-12T19:29:26.211Z,100.00
2019-01-12T19:31:53.142Z,100.00
2019-01-12T19:34:20.382Z,100.00
2019-01-12T19:36:47.664Z,100.00
2019-01-12T19:39:14.397Z,100.00
2019-01-12T19:41:41.083Z,100.00
2019-01-12T19:44:08.088Z,100.00
2019-01-12T19:46:34.957Z,100.00
2019-01-12T19:49:02.004Z,100.00
2019-01-12T19:51:28.883Z,100.00
2019-01-12T19:56:41.354Z,100.00
2019-01-12T19:59:13.625Z,100.00
2019-01-12T20:01:56.768Z,100.00
2019-01-12T20:04:23.509Z,100.00
2019-01-12T20:06:50.447Z,100.00
2019-01-12T20:09:17.238Z,100.00
2019-01-12T20:11:43.976Z,100.00
2019-01-12T20:14:10.840Z,100.00
2019-01-12T20:16:37.802Z,100.00
2019-01-12T20:19:04.839Z,100.00
2019-01-12T20:21:31.568Z,100.00
2019-01-12T20:23:58.266Z,100.00
2019-01-12T20:26:25.101Z,100.00
2019-01-12T20:28:51.939Z,100.00
2019-01-12T20:31:26.783Z,100.00
2019-01-12T20:34:15.532Z,100.00
2019-01-12T20:37:08.491Z,100.00
2019-01-12T20:40:14.642Z,100.00
2019-01-12T20:42:53.012Z,100.00
2019-01-12T20:45:58.882Z,100.00
2019-01-12T20:49:04.831Z,100.00
2019-01-12T20:51:59.220Z,100.00
2019-01-12T20:55:03.627Z,100.00
2019-01-12T20:57:53.433Z,100.00
2019-01-12T21:00:45.724Z,100.00
2019-01-12T21:03:51.726Z,100.00
2019-01-12T21:06:43.552Z,100.00
2019-01-12T21:09:49.690Z,100.00
2019-01-12T21:12:55.598Z,100.00
2019-01-12T21:15:28.036Z,100.00
2019-01-12T21:17:55.020Z,100.00
2019-01-12T21:20:22.186Z,100.00
2019-01-12T21:22:49.041Z,100.00
2019-01-12T21:25:16.180Z,100.00
2019-01-12T21:27:42.962Z,100.00
2019-01-12T21:30:12.401Z,100.00
2019-01-12T21:32:39.134Z,100.00
2019-01-12T21:35:07.176Z,100.00
2019-01-12T21:37:33.929Z,100.00
2019-01-12T21:40:00.665Z,100.00
2019-01-12T21:42:27.753Z,100.00
2019-01-12T21:44:54.491Z,100.00
2019-01-12T21:47:21.244Z,100.00
2019-01-12T21:49:48.216Z,100.00
2019-01-12T21:52:15.078Z,100.00
2019-01-12T21:54:42.150Z,100.00
2019-01-12T21:57:09.118Z,100.00
2019-01-12T21:59:42.259Z,100.00
2019-01-12T22:02:04.608Z,100.00
2019-01-12T22:04:31.434Z,100.00
2019-01-12T22:06:58.168Z,100.00
2019-01-12T22:09:25.015Z,100.00
2019-01-12T22:11:52.432Z,100.00
2019-01-12T22:14:19.174Z,100.00
2019-01-12T22:16:46.007Z,100.00
2019-01-12T22:19:12.947Z,100.00
2019-01-12T22:21:39.788Z,100.00
2019-01-12T22:24:06.527Z,100.00
2019-01-12T22:26:33.431Z,100.00
2019-01-12T22:29:00.906Z,100.00
2019-01-12T22:31:27.751Z,100.00
2019-01-12T22:33:55.125Z,100.00
2019-01-12T22:36:21.863Z,100.00
2019-01-12T22:38:48.604Z,100.00
2019-01-12T22:41:15.659Z,100.00
2019-01-12T22:43:42.409Z,100.00
2019-01-12T22:46:09.157Z,100.00
2019-01-12T22:48:36.936Z,100.00
2019-01-12T22:51:04.435Z,100.00
2019-01-12T22:53:31.177Z,100.00
2019-01-12T22:55:58.721Z,100.00
2019-01-12T22:58:25.610Z,100.00
2019-01-12T23:01:16.863Z,100.00
2019-01-12T23:03:47.262Z,100.00
2019-01-12T23:06:14.513Z,100.00
2019-01-12T23:08:41.348Z,100.00
2019-01-12T23:11:08.197Z,100.00
2019-01-12T23:13:35.656Z,100.00
2019-01-12T23:16:02.569Z,100.00
2019-01-12T23:18:29.319Z,100.00
2019-01-12T23:20:56.383Z,100.00
2019-01-12T23:23:23.198Z,100.00
2019-01-12T23:26:10.130Z,100.00
2019-01-12T23:28:45.603Z,100.00
2019-01-12T23:31:13.137Z,100.00
2019-01-12T23:33:40.440Z,100.00
2019-01-12T23:36:07.465Z,100.00
2019-01-12T23:38:34.592Z,100.00
2019-01-12T23:41:01.331Z,100.00
2019-01-12T23:43:28.119Z,100.00
2019-01-12T23:45:54.966Z,100.00
2019-01-12T23:48:21.803Z,100.00
2019-01-12T23:50:49.223Z,100.00
2019-01-12T23:53:15.969Z,100.00
2019-01-12T23:55:42.713Z,100.00
2019-01-12T23:58:09.503Z,100.00
